sensor_id;sensor_type;location;lat;lon;timestamp;temperature;humidity
11599;DHT22;5855;48.840;9.188;2023-04-28T00:01:12;11.30;99.90
11599;DHT22;5855;48.840;9.188;2023-04-28T00:03:39;11.30;99.90
11599;DHT22;5855;48.840;9.188;2023-04-28T00:06:06;11.30;99.90
11599;DHT22;5855;48.840;9.188;2023-04-28T00:08:34;11.40;99.90
11599;DHT22;5855;48.840;9.188;2023-04-28T00:11:00;11.30;99.90
11599;DHT22;5855;48.840;9.188;2023-04-28T00:13:27;11.40;99.90
11599;DHT22;5855;48.840;9.188;2023-04-28T00:15:55;11.40;99.90
11599;DHT22;5855;48.840;9.188;2023-04-28T00:18:21;11.50;99.90
11599;DHT22;5855;48.840;9.188;2023-04-28T00:20:48;11.50;99.90
11599;DHT22;5855;48.840;9.188;2023-04-28T00:23:15;11.50;99.90
11599;DHT22;5855;48.840;9.188;2023-04-28T00:25:43;11.50;99.90
11599;DHT22;5855;48.840;9.188;2023-04-28T00:28:10;11.60;99.90
11599;DHT22;5855;48.840;9.188;2023-04-28T00:30:37;11.60;99.90
11599;DHT22;5855;48.840;9.188;2023-04-28T00:33:03;11.70;99.90
11599;DHT22;5855;48.840;9.188;2023-04-28T00:35:30;11.70;99.90
11599;DHT22;5855;48.840;9.188;2023-04-28T00:37:57;11.70;99.90
11599;DHT22;5855;48.840;9.188;2023-04-28T00:40:32;11.80;99.90
11599;DHT22;5855;48.840;9.188;2023-04-28T00:43:00;11.80;99.90
11599;DHT22;5855;48.840;9.188;2023-04-28T00:45:27;11.70;99.90
11599;DHT22;5855;48.840;9.188;2023-04-28T00:47:54;11.80;99.90
11599;DHT22;5855;48.840;9.188;2023-04-28T00:50:22;11.80;99.90
11599;DHT22;5855;48.840;9.188;2023-04-28T00:52:49;11.70;99.90
11599;DHT22;5855;48.840;9.188;2023-04-28T00:55:17;11.80;99.90
11599;DHT22;5855;48.840;9.188;2023-04-28T00:57:44;11.80;99.90
11599;DHT22;5855;48.840;9.188;2023-04-28T01:00:14;11.80;99.90
11599;DHT22;5855;48.840;9.188;2023-04-28T01:02:41;11.80;99.90
11599;DHT22;5855;48.840;9.188;2023-04-28T01:05:08;11.80;99.90
11599;DHT22;5855;48.840;9.188;2023-04-28T01:07:35;11.80;99.90
11599;DHT22;5855;48.840;9.188;2023-04-28T01:10:03;11.80;99.90
11599;DHT22;5855;48.840;9.188;2023-04-28T01:12:30;11.80;99.90
11599;DHT22;5855;48.840;9.188;2023-04-28T01:14:57;11.80;99.90
11599;DHT22;5855;48.840;9.188;2023-04-28T01:17:25;11.80;99.90
11599;DHT22;5855;48.840;9.188;2023-04-28T01:19:52;11.80;99.90
11599;DHT22;5855;48.840;9.188;2023-04-28T01:22:19;11.90;99.90
11599;DHT22;5855;48.840;9.188;2023-04-28T01:24:47;11.90;99.90
11599;DHT22;5855;48.840;9.188;2023-04-28T01:27:14;12.00;99.90
11599;DHT22;5855;48.840;9.188;2023-04-28T01:29:41;11.90;99.90
11599;DHT22;5855;48.840;9.188;2023-04-28T01:32:08;11.90;99.90
11599;DHT22;5855;48.840;9.188;2023-04-28T01:34:35;11.90;99.90
11599;DHT22;5855;48.840;9.188;2023-04-28T01:37:02;11.90;99.90
11599;DHT22;5855;48.840;9.188;2023-04-28T01:39:29;11.90;99.90
11599;DHT22;5855;48.840;9.188;2023-04-28T01:41:57;11.90;99.90
11599;DHT22;5855;48.840;9.188;2023-04-28T01:44:24;11.90;99.90
11599;DHT22;5855;48.840;9.188;2023-04-28T01:46:51;11.90;99.90
11599;DHT22;5855;48.840;9.188;2023-04-28T01:49:17;12.00;99.90
11599;DHT22;5855;48.840;9.188;2023-04-28T01:51:44;12.00;99.90
11599;DHT22;5855;48.840;9.188;2023-04-28T01:54:11;12.00;99.90
11599;DHT22;5855;48.840;9.188;2023-04-28T01:56:52;12.00;99.90
11599;DHT22;5855;48.840;9.188;2023-04-28T01:59:37;12.10;99.90
11599;DHT22;5855;48.840;9.188;2023-04-28T02:02:04;12.00;99.90
11599;DHT22;5855;48.840;9.188;2023-04-28T02:04:31;12.00;99.90
11599;DHT22;5855;48.840;9.188;2023-04-28T02:06:58;12.00;99.90
11599;DHT22;5855;48.840;9.188;2023-04-28T02:09:24;12.00;99.90
11599;DHT22;5855;48.840;9.188;2023-04-28T02:11:51;12.00;99.90
11599;DHT22;5855;48.840;9.188;2023-04-28T02:14:18;12.00;99.90
11599;DHT22;5855;48.840;9.188;2023-04-28T02:16:46;12.00;99.90
11599;DHT22;5855;48.840;9.188;2023-04-28T02:19:14;12.00;99.90
11599;DHT22;5855;48.840;9.188;2023-04-28T02:21:41;12.00;99.90
11599;DHT22;5855;48.840;9.188;2023-04-28T02:24:08;12.00;99.90
11599;DHT22;5855;48.840;9.188;2023-04-28T02:26:35;12.00;99.90
11599;DHT22;5855;48.840;9.188;2023-04-28T02:29:01;12.00;99.90
11599;DHT22;5855;48.840;9.188;2023-04-28T02:31:29;12.00;99.90
11599;DHT22;5855;48.840;9.188;2023-04-28T02:33:57;12.00;99.90
11599;DHT22;5855;48.840;9.188;2023-04-28T02:36:24;12.00;99.90
11599;DHT22;5855;48.840;9.188;2023-04-28T02:38:52;12.00;99.90
11599;DHT22;5855;48.840;9.188;2023-04-28T02:41:19;12.00;99.90
11599;DHT22;5855;48.840;9.188;2023-04-28T02:43:45;12.00;99.90
11599;DHT22;5855;48.840;9.188;2023-04-28T02:46:12;12.00;99.90
11599;DHT22;5855;48.840;9.188;2023-04-28T02:48:39;12.00;99.90
11599;DHT22;5855;48.840;9.188;2023-04-28T02:51:07;12.00;99.90
11599;DHT22;5855;48.840;9.188;2023-04-28T02:53:34;12.00;99.90
11599;DHT22;5855;48.840;9.188;2023-04-28T02:56:01;12.00;99.90
11599;DHT22;5855;48.840;9.188;2023-04-28T02:58:29;12.10;99.90
11599;DHT22;5855;48.840;9.188;2023-04-28T03:00:56;12.10;99.90
11599;DHT22;5855;48.840;9.188;2023-04-28T03:03:24;12.10;99.90
11599;DHT22;5855;48.840;9.188;2023-04-28T03:05:53;12.00;99.90
11599;DHT22;5855;48.840;9.188;2023-04-28T03:08:22;12.10;99.90
11599;DHT22;5855;48.840;9.188;2023-04-28T03:10:49;12.10;99.90
11599;DHT22;5855;48.840;9.188;2023-04-28T03:13:16;12.00;99.90
11599;DHT22;5855;48.840;9.188;2023-04-28T03:15:43;12.00;99.90
11599;DHT22;5855;48.840;9.188;2023-04-28T03:18:09;11.90;99.90
11599;DHT22;5855;48.840;9.188;2023-04-28T03:20:36;11.90;99.90
11599;DHT22;5855;48.840;9.188;2023-04-28T03:23:03;11.90;99.90
11599;DHT22;5855;48.840;9.188;2023-04-28T03:25:31;11.90;99.90
11599;DHT22;5855;48.840;9.188;2023-04-28T03:27:58;11.80;99.90
11599;DHT22;5855;48.840;9.188;2023-04-28T03:30:25;11.80;99.90
11599;DHT22;5855;48.840;9.188;2023-04-28T03:32:52;11.80;99.90
11599;DHT22;5855;48.840;9.188;2023-04-28T03:35:18;11.80;99.90
11599;DHT22;5855;48.840;9.188;2023-04-28T03:37:46;11.80;99.90
11599;DHT22;5855;48.840;9.188;2023-04-28T03:40:13;11.80;99.90
11599;DHT22;5855;48.840;9.188;2023-04-28T03:42:41;11.70;99.90
11599;DHT22;5855;48.840;9.188;2023-04-28T03:45:08;11.70;99.90
11599;DHT22;5855;48.840;9.188;2023-04-28T03:47:35;11.70;99.90
11599;DHT22;5855;48.840;9.188;2023-04-28T03:50:02;11.60;99.90
11599;DHT22;5855;48.840;9.188;2023-04-28T03:52:29;11.60;99.90
11599;DHT22;5855;48.840;9.188;2023-04-28T03:54:57;11.60;99.90
11599;DHT22;5855;48.840;9.188;2023-04-28T03:57:24;11.60;99.90
11599;DHT22;5855;48.840;9.188;2023-04-28T03:59:52;11.60;99.90
11599;DHT22;5855;48.840;9.188;2023-04-28T04:02:18;11.60;99.90
11599;DHT22;5855;48.840;9.188;2023-04-28T04:04:46;11.60;99.90
11599;DHT22;5855;48.840;9.188;2023-04-28T04:07:13;11.60;99.90
11599;DHT22;5855;48.840;9.188;2023-04-28T04:09:40;11.60;99.90
11599;DHT22;5855;48.840;9.188;2023-04-28T04:12:07;11.60;99.90
11599;DHT22;5855;48.840;9.188;2023-04-28T04:14:33;11.60;99.90
11599;DHT22;5855;48.840;9.188;2023-04-28T04:17:02;11.60;99.90
11599;DHT22;5855;48.840;9.188;2023-04-28T04:19:28;11.60;99.90
11599;DHT22;5855;48.840;9.188;2023-04-28T04:21:55;11.60;99.90
11599;DHT22;5855;48.840;9.188;2023-04-28T04:24:22;11.60;99.90
11599;DHT22;5855;48.840;9.188;2023-04-28T04:26:49;11.60;99.90
11599;DHT22;5855;48.840;9.188;2023-04-28T04:29:16;11.60;99.90
11599;DHT22;5855;48.840;9.188;2023-04-28T04:31:42;11.60;99.90
11599;DHT22;5855;48.840;9.188;2023-04-28T04:34:11;11.60;99.90
11599;DHT22;5855;48.840;9.188;2023-04-28T04:36:38;11.60;99.90
11599;DHT22;5855;48.840;9.188;2023-04-28T04:39:05;11.60;99.90
11599;DHT22;5855;48.840;9.188;2023-04-28T04:41:35;11.70;99.90
11599;DHT22;5855;48.840;9.188;2023-04-28T04:44:01;11.70;99.90
11599;DHT22;5855;48.840;9.188;2023-04-28T04:46:29;11.70;99.90
11599;DHT22;5855;48.840;9.188;2023-04-28T04:48:56;11.80;99.90
11599;DHT22;5855;48.840;9.188;2023-04-28T04:51:24;11.80;99.90
11599;DHT22;5855;48.840;9.188;2023-04-28T04:53:52;11.80;99.90
11599;DHT22;5855;48.840;9.188;2023-04-28T04:56:19;11.80;99.90
11599;DHT22;5855;48.840;9.188;2023-04-28T04:58:46;11.80;99.90
11599;DHT22;5855;48.840;9.188;2023-04-28T05:01:13;11.80;99.90
11599;DHT22;5855;48.840;9.188;2023-04-28T05:03:39;11.90;99.90
11599;DHT22;5855;48.840;9.188;2023-04-28T05:06:06;11.90;99.90
11599;DHT22;5855;48.840;9.188;2023-04-28T05:08:34;11.90;99.90
11599;DHT22;5855;48.840;9.188;2023-04-28T05:11:01;11.90;99.90
11599;DHT22;5855;48.840;9.188;2023-04-28T05:13:28;11.90;99.90
11599;DHT22;5855;48.840;9.188;2023-04-28T05:15:55;11.90;99.90
11599;DHT22;5855;48.840;9.188;2023-04-28T05:18:22;11.90;99.90
11599;DHT22;5855;48.840;9.188;2023-04-28T05:20:49;11.90;99.90
11599;DHT22;5855;48.840;9.188;2023-04-28T05:23:16;12.00;99.90
11599;DHT22;5855;48.840;9.188;2023-04-28T05:25:44;12.10;99.90
11599;DHT22;5855;48.840;9.188;2023-04-28T05:28:11;12.10;99.90
11599;DHT22;5855;48.840;9.188;2023-04-28T05:30:38;12.00;99.90
11599;DHT22;5855;48.840;9.188;2023-04-28T05:33:05;12.10;99.90
11599;DHT22;5855;48.840;9.188;2023-04-28T05:35:32;12.10;99.90
11599;DHT22;5855;48.840;9.188;2023-04-28T05:37:59;12.10;99.90
11599;DHT22;5855;48.840;9.188;2023-04-28T05:40:26;12.10;99.90
11599;DHT22;5855;48.840;9.188;2023-04-28T05:42:55;12.10;99.90
11599;DHT22;5855;48.840;9.188;2023-04-28T05:45:21;12.10;99.90
11599;DHT22;5855;48.840;9.188;2023-04-28T05:47:49;12.20;99.90
11599;DHT22;5855;48.840;9.188;2023-04-28T05:50:19;12.20;99.90
11599;DHT22;5855;48.840;9.188;2023-04-28T05:52:46;12.30;99.90
11599;DHT22;5855;48.840;9.188;2023-04-28T05:55:13;12.30;99.90
11599;DHT22;5855;48.840;9.188;2023-04-28T05:57:42;12.40;99.90
11599;DHT22;5855;48.840;9.188;2023-04-28T06:00:14;12.40;99.90
11599;DHT22;5855;48.840;9.188;2023-04-28T06:02:41;12.40;99.90
11599;DHT22;5855;48.840;9.188;2023-04-28T06:05:08;12.40;99.90
11599;DHT22;5855;48.840;9.188;2023-04-28T06:07:35;12.40;99.90
11599;DHT22;5855;48.840;9.188;2023-04-28T06:10:02;12.50;99.90
11599;DHT22;5855;48.840;9.188;2023-04-28T06:12:30;12.50;99.90
11599;DHT22;5855;48.840;9.188;2023-04-28T06:14:57;12.40;99.90
11599;DHT22;5855;48.840;9.188;2023-04-28T06:17:25;12.40;99.90
11599;DHT22;5855;48.840;9.188;2023-04-28T06:19:52;12.40;99.90
11599;DHT22;5855;48.840;9.188;2023-04-28T06:22:20;12.40;99.90
11599;DHT22;5855;48.840;9.188;2023-04-28T06:24:52;12.30;99.90
11599;DHT22;5855;48.840;9.188;2023-04-28T06:27:19;12.20;99.90
11599;DHT22;5855;48.840;9.188;2023-04-28T06:29:49;12.20;99.90
11599;DHT22;5855;48.840;9.188;2023-04-28T06:32:17;12.20;99.90
11599;DHT22;5855;48.840;9.188;2023-04-28T06:34:47;12.20;99.90
11599;DHT22;5855;48.840;9.188;2023-04-28T06:37:13;12.20;99.90
11599;DHT22;5855;48.840;9.188;2023-04-28T06:39:40;12.20;99.90
11599;DHT22;5855;48.840;9.188;2023-04-28T06:42:07;12.30;99.90
11599;DHT22;5855;48.840;9.188;2023-04-28T06:44:34;12.30;99.90
11599;DHT22;5855;48.840;9.188;2023-04-28T06:47:01;12.30;99.90
11599;DHT22;5855;48.840;9.188;2023-04-28T06:49:28;12.30;99.90
11599;DHT22;5855;48.840;9.188;2023-04-28T06:51:56;12.30;99.90
11599;DHT22;5855;48.840;9.188;2023-04-28T06:54:23;12.30;99.90
11599;DHT22;5855;48.840;9.188;2023-04-28T06:56:50;12.40;99.90
11599;DHT22;5855;48.840;9.188;2023-04-28T06:59:17;12.40;99.90
11599;DHT22;5855;48.840;9.188;2023-04-28T07:01:44;12.40;99.90
11599;DHT22;5855;48.840;9.188;2023-04-28T07:04:10;12.50;99.90
11599;DHT22;5855;48.840;9.188;2023-04-28T07:06:37;12.50;99.90
11599;DHT22;5855;48.840;9.188;2023-04-28T07:09:05;12.60;99.90
11599;DHT22;5855;48.840;9.188;2023-04-28T07:11:32;12.60;99.90
11599;DHT22;5855;48.840;9.188;2023-04-28T07:13:59;12.60;99.90
11599;DHT22;5855;48.840;9.188;2023-04-28T07:16:27;12.60;99.90
11599;DHT22;5855;48.840;9.188;2023-04-28T07:18:54;12.60;99.90
11599;DHT22;5855;48.840;9.188;2023-04-28T07:21:21;12.60;99.90
11599;DHT22;5855;48.840;9.188;2023-04-28T07:23:48;12.70;99.90
11599;DHT22;5855;48.840;9.188;2023-04-28T07:26:16;12.70;99.90
11599;DHT22;5855;48.840;9.188;2023-04-28T07:28:43;12.70;99.90
11599;DHT22;5855;48.840;9.188;2023-04-28T07:31:12;12.70;99.90
11599;DHT22;5855;48.840;9.188;2023-04-28T07:33:39;12.70;99.90
11599;DHT22;5855;48.840;9.188;2023-04-28T07:36:06;12.70;99.90
11599;DHT22;5855;48.840;9.188;2023-04-28T07:38:33;12.80;99.90
11599;DHT22;5855;48.840;9.188;2023-04-28T07:41:01;12.70;99.90
11599;DHT22;5855;48.840;9.188;2023-04-28T07:43:29;12.70;99.90
11599;DHT22;5855;48.840;9.188;2023-04-28T07:45:56;12.80;99.90
11599;DHT22;5855;48.840;9.188;2023-04-28T07:48:23;12.80;99.90
11599;DHT22;5855;48.840;9.188;2023-04-28T07:50:51;12.80;99.90
11599;DHT22;5855;48.840;9.188;2023-04-28T07:53:18;12.90;99.90
11599;DHT22;5855;48.840;9.188;2023-04-28T07:55:45;13.00;99.90
11599;DHT22;5855;48.840;9.188;2023-04-28T07:58:12;13.00;99.90
11599;DHT22;5855;48.840;9.188;2023-04-28T08:00:40;13.00;99.90
11599;DHT22;5855;48.840;9.188;2023-04-28T08:03:07;13.00;99.90
11599;DHT22;5855;48.840;9.188;2023-04-28T08:05:34;13.00;99.90
11599;DHT22;5855;48.840;9.188;2023-04-28T08:08:01;13.00;99.90
11599;DHT22;5855;48.840;9.188;2023-04-28T08:10:28;13.00;99.90
11599;DHT22;5855;48.840;9.188;2023-04-28T08:12:55;13.00;99.90
11599;DHT22;5855;48.840;9.188;2023-04-28T08:15:22;13.00;99.90
11599;DHT22;5855;48.840;9.188;2023-04-28T08:17:51;12.90;99.90
11599;DHT22;5855;48.840;9.188;2023-04-28T08:20:18;13.00;99.90
11599;DHT22;5855;48.840;9.188;2023-04-28T08:22:45;12.90;99.90
11599;DHT22;5855;48.840;9.188;2023-04-28T08:25:12;12.80;99.90
11599;DHT22;5855;48.840;9.188;2023-04-28T08:27:39;12.80;99.90
11599;DHT22;5855;48.840;9.188;2023-04-28T08:30:07;12.90;99.90
11599;DHT22;5855;48.840;9.188;2023-04-28T08:32:34;12.80;99.90
11599;DHT22;5855;48.840;9.188;2023-04-28T08:35:03;12.80;99.90
11599;DHT22;5855;48.840;9.188;2023-04-28T08:37:30;12.90;99.90
11599;DHT22;5855;48.840;9.188;2023-04-28T08:39:57;12.90;99.90
11599;DHT22;5855;48.840;9.188;2023-04-28T08:42:29;13.00;99.90
11599;DHT22;5855;48.840;9.188;2023-04-28T08:44:57;13.10;99.90
11599;DHT22;5855;48.840;9.188;2023-04-28T08:47:30;13.20;99.90
11599;DHT22;5855;48.840;9.188;2023-04-28T08:50:03;13.30;99.90
11599;DHT22;5855;48.840;9.188;2023-04-28T08:52:31;13.40;99.90
11599;DHT22;5855;48.840;9.188;2023-04-28T08:54:59;13.50;99.90
11599;DHT22;5855;48.840;9.188;2023-04-28T08:57:27;13.60;99.90
11599;DHT22;5855;48.840;9.188;2023-04-28T08:59:58;13.70;99.90
11599;DHT22;5855;48.840;9.188;2023-04-28T09:02:25;13.90;99.90
11599;DHT22;5855;48.840;9.188;2023-04-28T09:04:52;14.20;99.90
11599;DHT22;5855;48.840;9.188;2023-04-28T09:07:21;14.30;99.90
11599;DHT22;5855;48.840;9.188;2023-04-28T09:09:48;14.50;99.90
11599;DHT22;5855;48.840;9.188;2023-04-28T09:12:17;14.50;99.90
11599;DHT22;5855;48.840;9.188;2023-04-28T09:14:44;14.50;99.90
11599;DHT22;5855;48.840;9.188;2023-04-28T09:17:12;14.60;99.90
11599;DHT22;5855;48.840;9.188;2023-04-28T09:19:41;14.60;99.90
11599;DHT22;5855;48.840;9.188;2023-04-28T09:22:08;14.60;99.90
11599;DHT22;5855;48.840;9.188;2023-04-28T09:24:38;14.60;99.90
11599;DHT22;5855;48.840;9.188;2023-04-28T09:27:07;14.60;99.90
11599;DHT22;5855;48.840;9.188;2023-04-28T09:29:36;14.60;99.90
11599;DHT22;5855;48.840;9.188;2023-04-28T09:32:15;14.60;99.90
11599;DHT22;5855;48.840;9.188;2023-04-28T09:34:45;14.70;99.90
11599;DHT22;5855;48.840;9.188;2023-04-28T09:37:19;14.80;99.90
11599;DHT22;5855;48.840;9.188;2023-04-28T09:39:49;14.80;99.90
11599;DHT22;5855;48.840;9.188;2023-04-28T09:42:33;14.90;99.90
11599;DHT22;5855;48.840;9.188;2023-04-28T09:45:06;14.90;99.90
11599;DHT22;5855;48.840;9.188;2023-04-28T09:47:36;15.00;99.90
11599;DHT22;5855;48.840;9.188;2023-04-28T09:50:06;15.10;99.90
11599;DHT22;5855;48.840;9.188;2023-04-28T09:52:37;15.10;99.90
11599;DHT22;5855;48.840;9.188;2023-04-28T09:55:06;15.30;99.90
11599;DHT22;5855;48.840;9.188;2023-04-28T09:57:35;15.40;99.90
11599;DHT22;5855;48.840;9.188;2023-04-28T10:00:03;15.70;99.90
11599;DHT22;5855;48.840;9.188;2023-04-28T10:02:32;16.00;99.90
11599;DHT22;5855;48.840;9.188;2023-04-28T10:05:00;16.30;99.90
11599;DHT22;5855;48.840;9.188;2023-04-28T10:07:30;16.60;99.90
11599;DHT22;5855;48.840;9.188;2023-04-28T10:10:00;16.80;99.90
11599;DHT22;5855;48.840;9.188;2023-04-28T10:12:32;17.00;99.90
11599;DHT22;5855;48.840;9.188;2023-04-28T10:14:59;17.10;99.90
11599;DHT22;5855;48.840;9.188;2023-04-28T10:17:26;17.20;99.90
11599;DHT22;5855;48.840;9.188;2023-04-28T10:19:55;17.10;99.90
11599;DHT22;5855;48.840;9.188;2023-04-28T10:22:32;17.20;99.90
11599;DHT22;5855;48.840;9.188;2023-04-28T10:25:11;17.30;99.90
11599;DHT22;5855;48.840;9.188;2023-04-28T10:27:48;17.30;99.90
11599;DHT22;5855;48.840;9.188;2023-04-28T10:30:16;17.40;99.90
11599;DHT22;5855;48.840;9.188;2023-04-28T10:32:44;17.80;99.90
11599;DHT22;5855;48.840;9.188;2023-04-28T10:35:39;18.20;99.90
11599;DHT22;5855;48.840;9.188;2023-04-28T10:38:08;18.70;99.90
11599;DHT22;5855;48.840;9.188;2023-04-28T10:40:37;18.90;99.90
11599;DHT22;5855;48.840;9.188;2023-04-28T10:43:06;19.00;99.90
11599;DHT22;5855;48.840;9.188;2023-04-28T10:46:07;19.10;99.90
11599;DHT22;5855;48.840;9.188;2023-04-28T10:49:04;19.00;99.90
11599;DHT22;5855;48.840;9.188;2023-04-28T10:51:33;18.90;99.90
11599;DHT22;5855;48.840;9.188;2023-04-28T10:54:07;18.50;99.90
11599;DHT22;5855;48.840;9.188;2023-04-28T10:56:34;18.30;99.90
11599;DHT22;5855;48.840;9.188;2023-04-28T10:59:25;18.40;99.90
11599;DHT22;5855;48.840;9.188;2023-04-28T11:01:53;18.30;99.90
11599;DHT22;5855;48.840;9.188;2023-04-28T11:04:19;18.30;99.90
11599;DHT22;5855;48.840;9.188;2023-04-28T11:07:08;18.50;99.90
11599;DHT22;5855;48.840;9.188;2023-04-28T11:09:47;18.50;99.90
11599;DHT22;5855;48.840;9.188;2023-04-28T11:12:14;18.50;99.90
11599;DHT22;5855;48.840;9.188;2023-04-28T11:14:43;18.50;99.90
11599;DHT22;5855;48.840;9.188;2023-04-28T11:17:10;18.60;99.90
11599;DHT22;5855;48.840;9.188;2023-04-28T11:19:42;18.70;99.90
11599;DHT22;5855;48.840;9.188;2023-04-28T11:22:14;18.60;99.90
11599;DHT22;5855;48.840;9.188;2023-04-28T11:24:41;18.40;99.90
11599;DHT22;5855;48.840;9.188;2023-04-28T11:27:23;18.40;99.90
11599;DHT22;5855;48.840;9.188;2023-04-28T11:29:51;18.60;99.90
11599;DHT22;5855;48.840;9.188;2023-04-28T11:32:26;18.70;99.90
11599;DHT22;5855;48.840;9.188;2023-04-28T11:34:53;18.70;99.90
11599;DHT22;5855;48.840;9.188;2023-04-28T11:37:20;18.50;99.90
11599;DHT22;5855;48.840;9.188;2023-04-28T11:39:47;18.60;99.90
11599;DHT22;5855;48.840;9.188;2023-04-28T11:42:15;18.70;99.90
11599;DHT22;5855;48.840;9.188;2023-04-28T11:44:49;18.70;99.90
11599;DHT22;5855;48.840;9.188;2023-04-28T11:47:29;18.70;99.90
11599;DHT22;5855;48.840;9.188;2023-04-28T11:49:56;18.70;99.90
11599;DHT22;5855;48.840;9.188;2023-04-28T11:52:24;18.60;99.90
11599;DHT22;5855;48.840;9.188;2023-04-28T11:54:55;18.40;99.90
11599;DHT22;5855;48.840;9.188;2023-04-28T11:57:22;18.50;99.90
11599;DHT22;5855;48.840;9.188;2023-04-28T11:59:50;18.40;99.90
11599;DHT22;5855;48.840;9.188;2023-04-28T12:02:25;18.50;99.90
11599;DHT22;5855;48.840;9.188;2023-04-28T12:04:55;18.60;99.90
11599;DHT22;5855;48.840;9.188;2023-04-28T12:07:22;18.50;99.90
11599;DHT22;5855;48.840;9.188;2023-04-28T12:10:09;18.50;99.90
11599;DHT22;5855;48.840;9.188;2023-04-28T12:12:36;18.50;99.90
11599;DHT22;5855;48.840;9.188;2023-04-28T12:15:04;18.50;99.90
11599;DHT22;5855;48.840;9.188;2023-04-28T12:17:33;18.70;99.90
11599;DHT22;5855;48.840;9.188;2023-04-28T12:20:03;18.80;99.90
11599;DHT22;5855;48.840;9.188;2023-04-28T12:22:42;19.00;99.90
11599;DHT22;5855;48.840;9.188;2023-04-28T12:25:11;19.00;99.90
11599;DHT22;5855;48.840;9.188;2023-04-28T12:27:39;18.80;99.90
11599;DHT22;5855;48.840;9.188;2023-04-28T12:30:24;18.60;99.90
11599;DHT22;5855;48.840;9.188;2023-04-28T12:32:51;18.40;99.90
11599;DHT22;5855;48.840;9.188;2023-04-28T12:35:22;18.20;99.90
11599;DHT22;5855;48.840;9.188;2023-04-28T12:37:50;18.10;99.90
11599;DHT22;5855;48.840;9.188;2023-04-28T12:40:17;18.00;99.90
11599;DHT22;5855;48.840;9.188;2023-04-28T12:42:44;17.70;99.90
11599;DHT22;5855;48.840;9.188;2023-04-28T12:45:11;17.40;99.90
11599;DHT22;5855;48.840;9.188;2023-04-28T12:47:38;17.10;99.90
11599;DHT22;5855;48.840;9.188;2023-04-28T12:50:07;16.80;99.90
11599;DHT22;5855;48.840;9.188;2023-04-28T12:52:35;16.70;99.90
11599;DHT22;5855;48.840;9.188;2023-04-28T12:55:02;16.60;99.90
11599;DHT22;5855;48.840;9.188;2023-04-28T12:57:30;16.60;99.90
11599;DHT22;5855;48.840;9.188;2023-04-28T12:59:56;16.70;99.90
11599;DHT22;5855;48.840;9.188;2023-04-28T13:02:23;17.20;99.90
11599;DHT22;5855;48.840;9.188;2023-04-28T13:04:52;17.60;99.90
11599;DHT22;5855;48.840;9.188;2023-04-28T13:07:19;18.00;99.90
11599;DHT22;5855;48.840;9.188;2023-04-28T13:09:48;18.40;99.90
11599;DHT22;5855;48.840;9.188;2023-04-28T13:12:15;18.70;99.90
11599;DHT22;5855;48.840;9.188;2023-04-28T13:14:42;18.90;99.90
11599;DHT22;5855;48.840;9.188;2023-04-28T13:17:09;19.00;99.90
11599;DHT22;5855;48.840;9.188;2023-04-28T13:19:37;19.10;99.90
11599;DHT22;5855;48.840;9.188;2023-04-28T13:22:06;19.40;99.90
11599;DHT22;5855;48.840;9.188;2023-04-28T13:24:33;19.60;99.90
11599;DHT22;5855;48.840;9.188;2023-04-28T13:27:04;19.60;99.90
11599;DHT22;5855;48.840;9.188;2023-04-28T13:29:40;19.70;99.90
11599;DHT22;5855;48.840;9.188;2023-04-28T13:32:07;19.90;99.90
11599;DHT22;5855;48.840;9.188;2023-04-28T13:34:34;20.10;99.90
11599;DHT22;5855;48.840;9.188;2023-04-28T13:37:02;20.40;99.90
11599;DHT22;5855;48.840;9.188;2023-04-28T13:39:31;20.40;99.90
11599;DHT22;5855;48.840;9.188;2023-04-28T13:41:58;20.20;99.90
11599;DHT22;5855;48.840;9.188;2023-04-28T13:44:27;20.00;99.90
11599;DHT22;5855;48.840;9.188;2023-04-28T13:46:54;19.70;99.90
11599;DHT22;5855;48.840;9.188;2023-04-28T13:49:21;19.30;99.90
11599;DHT22;5855;48.840;9.188;2023-04-28T13:51:48;19.10;99.90
11599;DHT22;5855;48.840;9.188;2023-04-28T13:54:15;18.90;99.90
11599;DHT22;5855;48.840;9.188;2023-04-28T13:56:42;18.60;99.90
11599;DHT22;5855;48.840;9.188;2023-04-28T13:59:09;18.40;99.90
11599;DHT22;5855;48.840;9.188;2023-04-28T14:01:38;18.30;99.90
11599;DHT22;5855;48.840;9.188;2023-04-28T14:04:04;18.10;99.90
11599;DHT22;5855;48.840;9.188;2023-04-28T14:06:31;18.00;99.90
11599;DHT22;5855;48.840;9.188;2023-04-28T14:08:59;17.90;99.90
11599;DHT22;5855;48.840;9.188;2023-04-28T14:11:27;17.60;99.90
11599;DHT22;5855;48.840;9.188;2023-04-28T14:13:54;17.40;99.90
11599;DHT22;5855;48.840;9.188;2023-04-28T14:16:21;17.40;99.90
11599;DHT22;5855;48.840;9.188;2023-04-28T14:18:49;17.40;99.90
11599;DHT22;5855;48.840;9.188;2023-04-28T14:21:16;17.50;99.90
11599;DHT22;5855;48.840;9.188;2023-04-28T14:23:43;17.50;99.90
11599;DHT22;5855;48.840;9.188;2023-04-28T14:26:10;17.40;99.90
11599;DHT22;5855;48.840;9.188;2023-04-28T14:28:37;17.50;99.90
11599;DHT22;5855;48.840;9.188;2023-04-28T14:31:04;17.40;99.90
11599;DHT22;5855;48.840;9.188;2023-04-28T14:33:33;17.30;99.90
11599;DHT22;5855;48.840;9.188;2023-04-28T14:36:01;17.30;99.90
11599;DHT22;5855;48.840;9.188;2023-04-28T14:38:28;17.20;99.90
11599;DHT22;5855;48.840;9.188;2023-04-28T14:40:55;17.20;99.90
11599;DHT22;5855;48.840;9.188;2023-04-28T14:43:22;17.40;99.90
11599;DHT22;5855;48.840;9.188;2023-04-28T14:45:49;17.30;99.90
11599;DHT22;5855;48.840;9.188;2023-04-28T14:48:16;17.30;99.90
11599;DHT22;5855;48.840;9.188;2023-04-28T14:50:43;17.50;99.90
11599;DHT22;5855;48.840;9.188;2023-04-28T14:53:12;17.60;99.90
11599;DHT22;5855;48.840;9.188;2023-04-28T14:55:38;17.80;99.90
11599;DHT22;5855;48.840;9.188;2023-04-28T14:58:08;18.00;99.90
11599;DHT22;5855;48.840;9.188;2023-04-28T15:00:35;18.10;99.90
11599;DHT22;5855;48.840;9.188;2023-04-28T15:03:02;18.20;99.90
11599;DHT22;5855;48.840;9.188;2023-04-28T15:05:29;18.20;99.90
11599;DHT22;5855;48.840;9.188;2023-04-28T15:07:56;18.10;99.90
11599;DHT22;5855;48.840;9.188;2023-04-28T15:10:34;18.10;99.90
11599;DHT22;5855;48.840;9.188;2023-04-28T15:13:03;18.00;99.90
11599;DHT22;5855;48.840;9.188;2023-04-28T15:15:29;17.90;99.90
11599;DHT22;5855;48.840;9.188;2023-04-28T15:17:56;17.80;99.90
11599;DHT22;5855;48.840;9.188;2023-04-28T15:20:25;17.80;99.90
11599;DHT22;5855;48.840;9.188;2023-04-28T15:22:53;17.70;99.90
11599;DHT22;5855;48.840;9.188;2023-04-28T15:25:20;17.70;99.90
11599;DHT22;5855;48.840;9.188;2023-04-28T15:27:48;17.70;99.90
11599;DHT22;5855;48.840;9.188;2023-04-28T15:30:15;17.80;99.90
11599;DHT22;5855;48.840;9.188;2023-04-28T15:32:42;17.80;99.90
11599;DHT22;5855;48.840;9.188;2023-04-28T15:35:11;17.80;99.90
11599;DHT22;5855;48.840;9.188;2023-04-28T15:37:40;17.70;99.90
11599;DHT22;5855;48.840;9.188;2023-04-28T15:40:09;17.60;99.90
11599;DHT22;5855;48.840;9.188;2023-04-28T15:42:37;17.50;99.90
11599;DHT22;5855;48.840;9.188;2023-04-28T15:45:09;17.40;99.90
11599;DHT22;5855;48.840;9.188;2023-04-28T15:47:37;17.40;99.90
11599;DHT22;5855;48.840;9.188;2023-04-28T15:50:06;17.40;99.90
11599;DHT22;5855;48.840;9.188;2023-04-28T15:52:33;17.30;99.90